Time;durP1;ratioP1;P1;durP2;ratioP2;P2;SDS_P1;SDS_P2;PMS_P1;PMS_P2;Temp;Humidity;BMP_temperature;BMP_pressure;BME280_temperature;BME280_humidity;BME280_pressure;Samples;Min_cycle;Max_cycle;Signal;HPM_P1;HPM_P2
2024/03/01 00:00:21;;;;;;;15.90;7.50;;;;;;;6.04;55.38;101359.31;105762;1257;61242;-58
2024/03/01 00:02:50;;;;;;;18.10;9.30;;;;;;;5.99;55.46;101358.67;109201;1252;58497;-59
2024/03/01 00:05:18;;;;;;;16.90;8.90;;;;;;;5.95;55.46;101360.75;109192;1254;63775;-59
2024/03/01 00:07:45;;;;;;;19.50;7.80;;;;;;;5.88;55.62;101357.73;105223;1256;60376;-60
2024/03/01 00:10:13;;;;;;;17.30;8.40;;;;;;;5.82;55.68;101357.67;109368;1253;62582;-59
2024/03/01 00:12:41;;;;;;;18.10;8.10;;;;;;;5.79;55.80;101360.95;109290;1254;58474;-59
2024/03/01 00:15:09;;;;;;;16.00;8.10;;;;;;;5.76;55.83;101362.08;108756;1255;59382;-55
2024/03/01 00:17:36;;;;;;;16.10;7.90;;;;;;;5.73;55.78;101365.36;105432;1254;66065;-55
2024/03/01 00:20:05;;;;;;;17.10;8.50;;;;;;;5.70;55.95;101368.10;105497;1256;61523;-55
2024/03/01 00:22:33;;;;;;;19.30;11.20;;;;;;;5.66;56.02;101365.83;105620;1256;62824;-55
2024/03/01 00:25:01;;;;;;;28.80;10.80;;;;;;;5.62;56.02;101365.51;105439;1257;60546;-55
2024/03/01 00:27:29;;;;;;;13.90;6.70;;;;;;;5.62;56.11;101366.36;105397;1252;60524;-55
2024/03/01 00:29:56;;;;;;;14.10;6.40;;;;;;;5.68;56.08;101366.12;105475;1256;65100;-57
2024/03/01 00:32:24;;;;;;;17.60;7.30;;;;;;;5.74;56.12;101363.20;105371;1257;60730;-56
2024/03/01 00:34:52;;;;;;;14.60;5.50;;;;;;;5.83;56.15;101358.69;105949;1251;75664;-56
2024/03/01 00:37:19;;;;;;;11.90;5.90;;;;;;;5.89;56.13;101359.59;106152;1257;60769;-55
2024/03/01 00:39:47;;;;;;;18.70;7.40;;;;;;;5.97;56.10;101363.80;105409;1257;60292;-56
2024/03/01 00:42:16;;;;;;;18.20;9.20;;;;;;;6.02;56.00;101356.27;105481;1257;65589;-56
2024/03/01 00:44:44;;;;;;;15.70;7.40;;;;;;;6.01;55.82;101350.38;105398;1256;62608;-57
2024/03/01 00:47:12;;;;;;;15.90;8.30;;;;;;;5.96;55.72;101348.17;107065;1255;62719;-57
2024/03/01 00:49:40;;;;;;;17.20;8.90;;;;;;;5.89;55.72;101352.98;105653;1257;61842;-57
2024/03/01 00:52:09;;;;;;;18.20;8.30;;;;;;;5.84;55.75;101354.44;105295;1251;60544;-58
2024/03/01 00:54:37;;;;;;;15.90;7.90;;;;;;;5.82;55.70;101353.30;105352;1257;65011;-57
2024/03/01 00:57:05;;;;;;;15.40;7.40;;;;;;;5.75;55.73;101351.83;105635;1254;61959;-56
2024/03/01 00:59:32;;;;;;;20.00;9.30;;;;;;;5.69;55.82;101350.91;105349;1257;62840;-56
2024/03/01 01:02:00;;;;;;;15.30;9.00;;;;;;;5.63;55.91;101351.52;105291;1259;60549;-57
2024/03/01 01:04:27;;;;;;;18.70;9.60;;;;;;;5.58;55.96;101349.30;101458;1251;5360377;-57
2024/03/01 01:08:32;;;;;;;24.00;10.60;;;;;;;5.10;57.19;101349.77;101975;1295;602912;-56
2024/03/01 01:11:00;;;;;;;18.40;10.30;;;;;;;5.35;56.45;101352.02;104811;1267;59347;-57
2024/03/01 01:13:28;;;;;;;19.90;10.10;;;;;;;5.37;56.40;101349.86;104761;1260;59324;-56
2024/03/01 01:15:56;;;;;;;21.80;10.60;;;;;;;5.36;56.34;101346.61;104822;1260;63346;-56
2024/03/01 01:18:24;;;;;;;18.80;9.70;;;;;;;5.33;56.41;101341.66;104840;1261;61705;-55
2024/03/01 01:20:51;;;;;;;18.80;9.70;;;;;;;5.30;56.48;101337.96;101042;1262;5346955;-60
2024/03/01 01:23:19;;;;;;;15.90;7.40;;;;;;;5.26;56.49;101336.06;105655;1262;59646;-57
2024/03/01 01:25:47;;;;;;;13.10;5.40;;;;;;;5.27;56.53;101333.56;104986;1257;59483;-57
2024/03/01 01:28:15;;;;;;;17.90;6.90;;;;;;;5.32;56.53;101326.41;104951;1257;62106;-56
2024/03/01 01:30:45;;;;;;;17.80;6.70;;;;;;;5.37;56.52;101325.14;105006;1260;60227;-57
2024/03/01 01:33:13;;;;;;;17.00;7.80;;;;;;;5.42;56.53;101326.49;106600;1257;62677;-56
2024/03/01 01:35:41;;;;;;;14.40;6.80;;;;;;;5.50;56.68;101328.25;105202;1262;59681;-57
2024/03/01 01:38:09;;;;;;;17.30;8.20;;;;;;;5.60;56.59;101332.54;105170;1257;59887;-57
2024/03/01 01:40:37;;;;;;;22.10;8.20;;;;;;;5.62;56.56;101334.88;105058;1257;62945;-57
2024/03/01 01:43:05;;;;;;;20.20;8.30;;;;;;;5.62;56.62;101336.61;105445;1257;60305;-58
2024/03/01 01:45:33;;;;;;;19.50;9.00;;;;;;;5.64;56.61;101336.52;105007;1257;63797;-59
2024/03/01 01:48:02;;;;;;;23.40;8.70;;;;;;;5.65;56.51;101336.48;105096;1263;59702;-58
2024/03/01 01:50:30;;;;;;;16.60;8.80;;;;;;;5.64;56.49;101334.45;105377;1256;59765;-60
2024/03/01 01:52:59;;;;;;;18.20;8.70;;;;;;;5.56;56.40;101330.23;105373;1257;63153;-58
2024/03/01 01:55:27;;;;;;;26.50;8.40;;;;;;;5.48;56.39;101324.16;105457;1257;61506;-59
2024/03/01 01:57:55;;;;;;;17.20;9.80;;;;;;;5.41;56.37;101326.02;105554;1257;62660;-59
2024/03/01 02:00:23;;;;;;;23.80;10.80;;;;;;;5.35;56.35;101324.00;105343;1262;59784;-59
2024/03/01 02:02:51;;;;;;;19.00;10.50;;;;;;;5.30;56.46;101322.48;105077;1263;59535;-60
2024/03/01 02:05:18;;;;;;;18.60;9.60;;;;;;;5.26;56.53;101317.45;105102;1257;63178;-59
2024/03/01 02:07:46;;;;;;;28.20;10.00;;;;;;;5.20;56.63;101314.92;105137;1258;60257;-59
2024/03/01 02:10:17;;;;;;;19.00;10.30;;;;;;;5.13;56.76;101309.48;105114;1263;62528;-59
2024/03/01 02:12:56;;;;;;;21.30;9.40;;;;;;;5.07;56.99;101309.37;105754;1257;59545;-59
2024/03/01 02:15:25;;;;;;;24.20;11.30;;;;;;;5.02;56.97;101310.97;105782;1262;59657;-59
2024/03/01 02:17:53;;;;;;;20.10;10.20;;;;;;;4.97;56.88;101313.09;105637;1262;64209;-59
2024/03/01 02:20:22;;;;;;;19.60;9.90;;;;;;;4.93;57.04;101312.58;106487;1257;61665;-61
2024/03/01 02:22:53;;;;;;;19.60;9.60;;;;;;;4.88;57.13;101311.74;105689;1257;63912;-61
2024/03/01 02:25:20;;;;;;;11.60;5.90;;;;;;;4.90;57.07;101314.43;105108;1257;59816;-61
2024/03/01 02:27:48;;;;;;;13.10;5.80;;;;;;;4.98;57.14;101312.17;106431;1257;59558;-55
2024/03/01 02:30:16;;;;;;;18.20;6.20;;;;;;;5.08;57.23;101310.20;105022;1262;64567;-57
2024/03/01 02:32:44;;;;;;;15.00;6.10;;;;;;;5.19;57.27;101305.22;105039;1259;60263;-55
2024/03/01 02:35:12;;;;;;;16.40;7.00;;;;;;;5.29;57.23;101306.70;105660;1257;62501;-56
2024/03/01 02:37:43;;;;;;;16.80;9.00;;;;;;;5.35;57.23;101305.55;105305;1257;60122;-55
2024/03/01 02:40:11;;;;;;;20.40;10.80;;;;;;;5.39;57.16;101305.21;105171;1257;59755;-55
2024/03/01 02:42:39;;;;;;;18.40;9.90;;;;;;;5.39;57.01;101307.27;105017;1262;64471;-57
2024/03/01 02:45:07;;;;;;;13.10;7.10;;;;;;;5.37;56.97;101308.11;105011;1257;61656;-57
2024/03/01 02:47:35;;;;;;;18.50;8.80;;;;;;;5.36;57.08;101311.80;105188;1257;62542;-57
2024/03/01 02:50:07;;;;;;;15.90;8.00;;;;;;;5.35;57.03;101313.05;105062;1262;59673;-56
2024/03/01 02:52:35;;;;;;;19.20;10.00;;;;;;;5.31;56.98;101307.48;105186;1257;62477;-56
2024/03/01 02:55:03;;;;;;;19.90;10.10;;;;;;;5.24;56.99;101309.52;105360;1257;63584;-57
2024/03/01 02:57:30;;;;;;;20.20;9.00;;;;;;;5.19;57.01;101315.48;105046;1257;61984;-57
2024/03/01 02:59:58;;;;;;;21.00;10.30;;;;;;;5.12;57.09;101317.00;105170;1263;62703;-58
2024/03/01 03:02:26;;;;;;;24.00;10.10;;;;;;;5.05;57.20;101318.83;105419;1262;61353;-57
2024/03/01 03:04:54;;;;;;;18.20;9.50;;;;;;;4.99;57.29;101310.22;105568;1262;59565;-56
2024/03/01 03:07:21;;;;;;;20.40;9.20;;;;;;;4.93;57.35;101303.71;105558;1258;67252;-57
2024/03/01 03:09:49;;;;;;;22.80;10.20;;;;;;;4.89;57.44;101304.74;105663;1257;61521;-56
2024/03/01 03:12:17;;;;;;;18.30;10.20;;;;;;;4.85;57.53;101303.87;105030;1262;63814;-56
2024/03/01 03:14:44;;;;;;;20.50;10.00;;;;;;;4.80;57.58;101300.05;105203;1262;59780;-57
2024/03/01 03:17:12;;;;;;;18.90;8.30;;;;;;;4.77;57.66;101297.39;104904;1263;59708;-58
2024/03/01 03:19:42;;;;;;;16.20;7.70;;;;;;;4.77;57.64;101293.05;105233;1258;64213;-58
2024/03/01 03:22:10;;;;;;;14.60;6.40;;;;;;;4.82;57.61;101293.89;105297;1259;60264;-58
2024/03/01 03:24:38;;;;;;;14.20;6.20;;;;;;;4.88;57.75;101290.70;105108;1257;63995;-57
2024/03/01 03:27:06;;;;;;;15.70;7.60;;;;;;;4.93;57.69;101286.46;105117;1257;60099;-58
2024/03/01 03:29:34;;;;;;;21.90;7.40;;;;;;;4.99;57.62;101284.34;106132;1257;59806;-57
2024/03/01 03:32:03;;;;;;;17.20;8.10;;;;;;;5.05;57.60;101280.58;105408;1257;63026;-58
2024/03/01 03:34:31;;;;;;;20.10;10.50;;;;;;;5.08;57.61;101280.80;105392;1257;62029;-60
2024/03/01 03:36:59;;;;;;;21.50;12.00;;;;;;;5.06;57.69;101280.38;105086;1263;62520;-57
2024/03/01 03:39:26;;;;;;;23.00;11.50;;;;;;;5.03;57.69;101281.18;105043;1259;59740;-59
2024/03/01 03:41:54;;;;;;;27.30;12.70;;;;;;;5.00;57.69;101282.52;105049;1257;59715;-55
2024/03/01 03:44:22;;;;;;;26.40;11.70;;;;;;;4.96;57.73;101280.27;104945;1262;64200;-56
2024/03/01 03:46:50;;;;;;;41.90;13.00;;;;;;;4.92;57.60;101282.02;105536;1262;61636;-57
2024/03/01 03:49:19;;;;;;;28.80;13.40;;;;;;;4.88;57.74;101281.30;105217;1260;62538;-57
2024/03/01 03:51:47;;;;;;;27.00;12.70;;;;;;;4.84;57.80;101287.70;106552;1257;59650;-57
2024/03/01 03:54:17;;;;;;;25.50;12.30;;;;;;;4.82;57.76;101291.14;105161;1257;59731;-56
2024/03/01 03:56:45;;;;;;;27.40;13.20;;;;;;;4.78;57.77;101294.58;105649;1257;63292;-55
2024/03/01 03:59:13;;;;;;;24.60;11.50;;;;;;;4.76;57.89;101294.34;105008;1262;60252;-55
2024/03/01 04:01:40;;;;;;;23.60;11.30;;;;;;;4.74;57.85;101294.95;104894;1262;62693;-56
2024/03/01 04:04:08;;;;;;;23.80;11.70;;;;;;;4.69;57.92;101291.13;105015;1262;59826;-57
2024/03/01 04:06:36;;;;;;;29.60;12.80;;;;;;;4.66;57.99;101286.20;105066;1263;59659;-57
2024/03/01 04:09:03;;;;;;;23.50;12.50;;;;;;;4.62;58.06;101284.48;105115;1257;62911;-56
2024/03/01 04:11:31;;;;;;;18.80;7.80;;;;;;;4.63;58.06;101288.95;104913;1260;60335;-56
2024/03/01 04:13:59;;;;;;;18.90;9.10;;;;;;;4.68;57.99;101285.80;107767;1257;62572;-57
2024/03/01 04:16:27;;;;;;;20.40;10.40;;;;;;;4.73;57.92;101285.24;107790;1256;59820;-57
2024/03/01 04:18:55;;;;;;;18.80;8.50;;;;;;;4.79;57.91;101285.50;105606;1257;59727;-57
2024/03/01 04:21:22;;;;;;;18.70;8.00;;;;;;;4.87;57.82;101286.92;104849;1257;64378;-58
2024/03/01 04:23:50;;;;;;;21.80;10.80;;;;;;;4.95;57.78;101287.61;105000;1261;61580;-59
2024/03/01 04:26:18;;;;;;;20.70;11.40;;;;;;;5.00;57.87;101293.16;105072;1261;62532;-58
2024/03/01 04:28:46;;;;;;;22.20;10.80;;;;;;;5.01;57.91;101295.36;105127;1257;60450;-58
2024/03/01 04:31:14;;;;;;;24.30;13.00;;;;;;;5.04;58.00;101302.21;105070;1262;59557;-57
2024/03/01 04:33:42;;;;;;;23.00;11.70;;;;;;;5.06;57.86;101304.90;105044;1261;64480;-57
2024/03/01 04:36:10;;;;;;;25.00;12.70;;;;;;;5.05;57.81;101307.90;104958;1257;61740;-58
2024/03/01 04:38:38;;;;;;;32.50;14.70;;;;;;;5.02;57.69;101308.88;106035;1259;62730;-58
2024/03/01 04:41:06;;;;;;;32.00;15.30;;;;;;;4.96;57.64;101307.73;105340;1258;59785;-58
2024/03/01 04:43:33;;;;;;;28.40;14.40;;;;;;;4.90;57.66;101311.48;105026;1257;60338;-58
2024/03/01 04:46:02;;;;;;;30.10;15.70;;;;;;;4.84;57.72;101312.09;104993;1259;62923;-57
2024/03/01 04:48:30;;;;;;;28.60;13.80;;;;;;;4.80;57.99;101307.02;105314;1262;60238;-58
2024/03/01 04:50:57;;;;;;;25.00;13.00;;;;;;;4.77;58.17;101305.25;105018;1260;62527;-58
2024/03/01 04:53:25;;;;;;;23.00;13.30;;;;;;;4.72;58.28;101305.25;104867;1257;59746;-56
2024/03/01 04:55:53;;;;;;;27.70;12.40;;;;;;;4.67;58.34;101305.96;104781;1257;59737;-58
2024/03/01 04:58:20;;;;;;;28.80;14.10;;;;;;;4.63;58.45;101308.56;105024;1258;62909;-57
2024/03/01 05:00:48;;;;;;;24.00;11.40;;;;;;;4.60;58.54;101307.98;105031;1258;61462;-56
2024/03/01 05:03:16;;;;;;;17.90;7.80;;;;;;;4.62;58.49;101310.19;104818;1263;66065;-57
2024/03/01 05:05:43;;;;;;;18.50;7.00;;;;;;;4.68;58.36;101310.48;107277;1257;59650;-57
2024/03/01 05:08:11;;;;;;;20.60;9.30;;;;;;;4.75;58.32;101312.25;104948;1257;59663;-57
2024/03/01 05:10:39;;;;;;;37.60;12.00;;;;;;;4.84;58.38;101312.06;105601;1257;62920;-57
2024/03/01 05:13:08;;;;;;;17.20;9.00;;;;;;;4.96;58.46;101314.02;104927;1261;60314;-57
2024/03/01 05:15:35;;;;;;;16.70;9.60;;;;;;;5.08;58.39;101314.04;105002;1259;63740;-56
2024/03/01 05:18:03;;;;;;;22.20;11.10;;;;;;;5.17;58.22;101311.23;104880;1260;60717;-57
2024/03/01 05:20:31;;;;;;;24.80;12.60;;;;;;;5.19;58.16;101314.62;105324;1262;60464;-56
2024/03/01 05:22:59;;;;;;;24.50;13.30;;;;;;;5.19;58.12;101319.80;104927;1262;65019;-56
2024/03/01 05:25:27;;;;;;;22.70;13.70;;;;;;;5.23;57.97;101323.33;104977;1257;61565;-56
2024/03/01 05:27:55;;;;;;;25.10;13.00;;;;;;;5.23;57.84;101325.40;104859;1263;63837;-57
2024/03/01 05:30:23;;;;;;;23.40;11.60;;;;;;;5.22;57.77;101326.64;105006;1261;60539;-58
2024/03/01 05:33:12;;;;;;;28.60;12.00;;;;;;;5.21;57.73;101338.34;106741;1257;60450;-55
2024/03/01 05:35:41;;;;;;;26.90;13.70;;;;;;;5.26;57.55;101343.02;105036;1257;63730;-57
2024/03/01 05:38:08;;;;;;;28.10;13.40;;;;;;;5.24;57.57;101350.41;104929;1259;60694;-57
2024/03/01 05:40:37;;;;;;;28.00;13.60;;;;;;;5.34;57.43;101352.24;105011;1260;63918;-59
2024/03/01 05:43:20;;;;;;;39.80;29.10;;;;;;;5.38;57.32;101354.33;105564;1261;60488;-58
2024/03/01 05:45:47;;;;;;;23.50;10.10;;;;;;;5.37;57.35;101357.17;106311;1259;60458;-55
2024/03/01 05:48:16;;;;;;;21.30;8.00;;;;;;;5.31;57.66;101358.30;104811;1258;67066;-55
2024/03/01 05:50:44;;;;;;;22.80;10.10;;;;;;;5.52;57.34;101356.71;104935;1263;60658;-55
2024/03/01 05:53:14;;;;;;;19.50;8.60;;;;;;;5.68;57.17;101360.38;104770;1257;62604;-57
2024/03/01 05:55:45;;;;;;;18.00;8.00;;;;;;;5.78;57.07;101361.66;106496;1257;60137;-57
2024/03/01 05:58:13;;;;;;;18.30;8.40;;;;;;;5.87;56.97;101361.94;105679;1258;60552;-58
2024/03/01 06:00:42;;;;;;;20.10;11.10;;;;;;;5.95;56.98;101363.16;104951;1257;63711;-59
2024/03/01 06:03:11;;;;;;;25.90;13.50;;;;;;;6.01;56.85;101363.62;105982;1257;61630;-57
2024/03/01 06:05:39;;;;;;;26.30;13.60;;;;;;;6.07;56.75;101364.94;105017;1261;62508;-57
2024/03/01 06:08:06;;;;;;;28.40;14.10;;;;;;;6.10;56.60;101361.84;106691;1260;60536;-59
2024/03/01 06:10:34;;;;;;;28.40;13.20;;;;;;;6.11;56.45;101363.14;108745;1257;58245;-58
2024/03/01 06:13:02;;;;;;;26.00;13.40;;;;;;;6.13;56.25;101363.23;108899;1257;65430;-59
2024/03/01 06:15:30;;;;;;;21.80;11.50;;;;;;;6.13;56.04;101356.97;108879;1258;60254;-59
2024/03/01 06:17:58;;;;;;;30.30;12.70;;;;;;;6.13;55.96;101354.17;108872;1257;63850;-59
2024/03/01 06:20:25;;;;;;;25.10;15.30;;;;;;;6.14;55.91;101355.55;108852;1257;58306;-60
2024/03/01 06:22:53;;;;;;;27.30;14.10;;;;;;;6.16;55.85;101359.64;106338;1261;60565;-60
2024/03/01 06:25:21;;;;;;;28.20;14.90;;;;;;;6.18;55.85;101361.33;104840;1257;65002;-59
2024/03/01 06:27:49;;;;;;;30.60;13.00;;;;;;;6.16;55.71;101361.38;104986;1260;61788;-62
2024/03/01 06:30:17;;;;;;;24.80;14.50;;;;;;;6.14;55.70;101365.46;105121;1260;62541;-66
2024/03/01 06:32:45;;;;;;;23.50;13.10;;;;;;;6.15;55.73;101365.09;104888;1257;60592;-68
2024/03/01 06:35:14;;;;;;;26.40;13.10;;;;;;;6.15;55.73;101361.59;105889;1257;60450;-66
2024/03/01 06:37:41;;;;;;;23.40;12.30;;;;;;;6.18;55.76;101365.16;105948;1258;63792;-65
2024/03/01 06:40:10;;;;;;;20.70;11.10;;;;;;;6.26;55.49;101369.14;105280;1260;61673;-64
2024/03/01 06:42:37;;;;;;;21.10;9.60;;;;;;;6.38;55.22;101372.92;105094;1258;63231;-65
2024/03/01 06:45:08;;;;;;;21.40;10.40;;;;;;;6.50;55.13;101377.73;105002;1257;60456;-66
2024/03/01 06:47:35;;;;;;;20.00;10.30;;;;;;;6.65;55.05;101385.27;105138;1257;60470;-66
2024/03/01 06:50:04;;;;;;;23.10;12.00;;;;;;;6.78;54.98;101386.02;104932;1257;63821;-64
2024/03/01 06:52:31;;;;;;;24.30;12.80;;;;;;;6.91;54.94;101387.32;105856;1257;62257;-59
2024/03/01 06:54:59;;;;;;;17.60;10.50;;;;;;;7.04;54.73;101387.38;104976;1257;63918;-62
2024/03/01 06:57:27;;;;;;;21.10;11.90;;;;;;;7.14;54.33;101394.05;105404;1261;60562;-59
2024/03/01 06:59:56;;;;;;;20.10;11.50;;;;;;;7.19;53.84;101398.32;104936;1257;60613;-61
2024/03/01 07:02:24;;;;;;;22.30;11.10;;;;;;;7.22;53.69;101397.66;105366;1257;65045;-60
2024/03/01 07:04:51;;;;;;;26.20;10.80;;;;;;;7.23;53.47;101392.55;104970;1260;60460;-60
2024/03/01 07:07:19;;;;;;;22.60;12.00;;;;;;;7.26;53.13;101390.48;104736;1260;63862;-60
2024/03/01 07:09:47;;;;;;;29.00;15.40;;;;;;;7.28;52.84;101392.65;104825;1257;60386;-63
2024/03/01 07:12:14;;;;;;;23.00;10.90;;;;;;;7.35;52.74;101393.35;106482;1261;60425;-60
2024/03/01 07:14:43;;;;;;;22.20;11.60;;;;;;;7.40;52.66;101397.98;105012;1258;63791;-64
2024/03/01 07:17:11;;;;;;;28.00;13.80;;;;;;;7.43;52.53;101396.45;108833;1257;60276;-64
2024/03/01 07:19:38;;;;;;;37.00;26.80;;;;;;;7.48;52.42;101396.17;108853;1257;64268;-62
2024/03/01 07:22:07;;;;;;;24.20;13.50;;;;;;;7.56;52.18;101395.78;108785;1257;58615;-61
2024/03/01 07:24:35;;;;;;;21.20;12.30;;;;;;;7.58;52.00;101392.88;108878;1257;58507;-60
2024/03/01 07:27:03;;;;;;;28.20;14.70;;;;;;;7.59;51.98;101396.70;108822;1257;63720;-60
2024/03/01 07:29:30;;;;;;;35.70;27.40;;;;;;;7.56;52.03;101403.68;108970;1256;60260;-60
2024/03/01 07:31:59;;;;;;;27.80;12.60;;;;;;;7.61;51.78;101399.02;108708;1257;62531;-60
2024/03/01 07:34:30;;;;;;;24.90;12.60;;;;;;;7.66;51.48;101395.42;104993;1262;60485;-61
2024/03/01 07:36:58;;;;;;;26.70;13.20;;;;;;;7.84;51.02;101394.16;104978;1257;60539;-62
2024/03/01 07:39:27;;;;;;;40.90;28.50;;;;;;;7.90;50.73;101398.75;105339;1257;63763;-61
2024/03/01 07:41:54;;;;;;;27.20;13.40;;;;;;;7.91;50.67;101400.23;106285;1261;60426;-61
2024/03/01 07:44:22;;;;;;;22.20;12.10;;;;;;;7.94;50.55;101402.20;104926;1258;62517;-61
2024/03/01 07:46:57;;;;;;;28.50;14.30;;;;;;;7.95;50.67;101402.65;104983;1257;60529;-62
2024/03/01 07:49:25;;;;;;;28.40;13.10;;;;;;;7.99;50.79;101404.40;105590;1257;60342;-61
2024/03/01 07:51:52;;;;;;;35.30;26.40;;;;;;;8.05;50.80;101401.83;104996;1258;65813;-64
2024/03/01 07:54:20;;;;;;;18.90;10.40;;;;;;;8.11;50.59;101399.91;104942;1257;61752;-59
2024/03/01 07:56:48;;;;;;;19.20;9.50;;;;;;;8.22;50.39;101394.09;104892;1260;66288;-58
2024/03/01 07:59:15;;;;;;;17.90;9.30;;;;;;;8.37;50.34;101389.23;105001;1260;60537;-60
2024/03/01 08:01:43;;;;;;;23.10;10.70;;;;;;;8.55;50.08;101394.42;104883;1257;60581;-61
2024/03/01 08:04:13;;;;;;;37.60;24.80;;;;;;;8.69;49.92;101395.02;105077;1257;65019;-59
2024/03/01 08:06:41;;;;;;;26.50;13.20;;;;;;;8.82;49.70;101392.55;104856;1263;60530;-59
2024/03/01 08:09:16;;;;;;;23.60;9.80;;;;;;;8.95;49.50;101389.02;105091;1257;63818;-59
2024/03/01 08:11:45;;;;;;;35.70;23.30;;;;;;;9.06;49.11;101386.45;105791;1260;60564;-59
2024/03/01 08:14:32;;;;;;;17.20;10.10;;;;;;;9.13;48.66;101385.75;104920;1262;60485;-61
2024/03/01 08:16:59;;;;;;;19.40;9.80;;;;;;;9.16;48.37;101388.38;105398;1262;65153;-61
2024/03/01 08:19:30;;;;;;;21.10;9.90;;;;;;;9.15;48.20;101386.48;105530;1262;60486;-63
2024/03/01 08:22:16;;;;;;;31.60;23.90;;;;;;;9.11;48.01;101384.29;104936;1257;62945;-61
2024/03/01 08:24:46;;;;;;;18.30;10.20;;;;;;;9.08;47.97;101382.51;105887;1261;60431;-62
2024/03/01 08:27:15;;;;;;;21.10;10.80;;;;;;;9.08;47.94;101381.25;105932;1257;60437;-62
2024/03/01 08:29:43;;;;;;;31.50;23.60;;;;;;;9.07;48.01;101379.73;105261;1263;63753;-61
2024/03/01 08:32:30;;;;;;;17.50;9.40;;;;;;;9.07;48.09;101380.45;105034;1262;68906;-59
2024/03/01 08:35:01;;;;;;;22.90;11.00;;;;;;;9.10;47.96;101381.19;105295;1262;62560;-63
2024/03/01 08:37:30;;;;;;;32.90;22.10;;;;;;;9.10;47.83;101379.56;104850;1259;60457;-62
2024/03/01 08:39:57;;;;;;;17.90;9.80;;;;;;;9.14;47.77;101377.96;105547;1257;60616;-61
2024/03/01 08:42:25;;;;;;;30.20;21.90;;;;;;;9.17;47.60;101382.36;104965;1257;65444;-63
2024/03/01 08:45:00;;;;;;;26.80;11.60;;;;;;;9.20;47.70;101376.36;106134;1265;61523;-61
2024/03/01 08:47:37;;;;;;;16.90;9.50;;;;;;;9.26;47.56;101368.52;104813;1257;63459;-65
2024/03/01 08:50:37;;;;;;;31.70;22.90;;;;;;;9.34;47.55;101365.77;105002;1257;60763;-59
2024/03/01 08:53:34;;;;;;;22.90;10.50;;;;;;;9.49;47.41;101364.17;104955;1257;60526;-62
2024/03/01 08:56:02;;;;;;;22.90;10.80;;;;;;;9.65;47.01;101367.06;104547;1262;65078;-58
2024/03/01 08:58:30;;;;;;;33.00;21.20;;;;;;;9.77;46.84;101363.02;105258;1262;62498;-58
2024/03/01 09:01:02;;;;;;;17.20;9.40;;;;;;;9.91;46.77;101359.23;105264;1262;62722;-57
2024/03/01 09:03:30;;;;;;;29.20;20.10;;;;;;;10.02;46.42;101356.40;104808;1259;60667;-57
2024/03/01 09:05:58;;;;;;;20.70;9.10;;;;;;;10.13;46.16;101352.02;105552;1257;60329;-58
2024/03/01 09:08:35;;;;;;;26.80;19.10;;;;;;;10.25;45.89;101351.67;106118;1260;65427;-56
2024/03/01 09:11:03;;;;;;;19.60;8.90;;;;;;;10.39;45.59;101353.75;105366;1262;60504;-57
2024/03/01 09:13:31;;;;;;;33.70;19.10;;;;;;;10.52;45.08;101352.27;106223;1257;65851;-57
2024/03/01 09:15:59;;;;;;;17.20;8.20;;;;;;;10.61;44.83;101353.23;105016;1262;60612;-56
2024/03/01 09:18:44;;;;;;;25.80;17.70;;;;;;;10.68;44.46;101350.84;105186;1262;59978;-54
2024/03/01 09:21:30;;;;;;;22.00;8.90;;;;;;;10.79;44.26;101345.63;105032;1257;65039;-58
2024/03/01 09:23:58;;;;;;;14.90;8.00;;;;;;;10.89;43.83;101344.74;104936;1262;60573;-62
2024/03/01 09:26:25;;;;;;;26.20;17.10;;;;;;;10.99;43.46;101346.92;105612;1262;62519;-60
2024/03/01 09:28:59;;;;;;;23.40;15.30;;;;;;;11.05;43.10;101347.75;105348;1261;60553;-58
2024/03/01 09:31:27;;;;;;;23.90;15.10;;;;;;;11.01;42.66;101340.63;105517;1257;59648;-61
2024/03/01 09:33:55;;;;;;;16.60;7.30;;;;;;;11.05;42.55;101340.19;104771;1262;65017;-58
2024/03/01 09:36:22;;;;;;;26.00;15.60;;;;;;;11.13;42.41;101334.73;106364;1261;60515;-57
2024/03/01 09:38:52;;;;;;;14.30;7.00;;;;;;;11.21;42.03;101335.23;106409;1261;62523;-57
2024/03/01 09:41:35;;;;;;;24.80;15.30;;;;;;;11.28;41.71;101332.12;104824;1262;60952;-62
2024/03/01 09:44:28;;;;;;;24.50;14.50;;;;;;;11.36;41.51;101328.25;105363;1257;60539;-59
2024/03/01 09:47:16;;;;;;;27.20;14.00;;;;;;;11.44;41.46;101325.42;105366;1258;65013;-57
2024/03/01 09:50:04;;;;;;;15.30;7.30;;;;;;;11.53;41.34;101321.66;107303;1257;61577;-58
2024/03/01 09:53:04;;;;;;;23.70;14.30;;;;;;;11.59;40.94;101316.50;106082;1257;62670;-60
2024/03/01 09:55:49;;;;;;;23.50;14.70;;;;;;;11.65;40.86;101317.29;104925;1262;60685;-58
2024/03/01 09:58:23;;;;;;;20.90;13.50;;;;;;;11.72;40.72;101317.38;108094;1262;59617;-58
2024/03/01 10:01:02;;;;;;;24.90;14.60;;;;;;;11.80;40.30;101320.35;105487;1258;63733;-57
2024/03/01 10:03:36;;;;;;;22.50;14.00;;;;;;;11.88;39.95;101318.55;105304;1256;62229;-58
2024/03/01 10:06:22;;;;;;;18.30;12.60;;;;;;;11.95;39.68;101321.20;105098;1260;63791;-59
2024/03/01 10:08:56;;;;;;;12.50;5.80;;;;;;;12.03;39.41;101319.44;105595;1262;60563;-55
2024/03/01 10:11:49;;;;;;;21.50;13.20;;;;;;;12.09;39.18;101312.84;105552;1258;60555;-57
2024/03/01 10:14:26;;;;;;;24.30;14.40;;;;;;;12.16;39.09;101313.05;105017;1261;63987;-60
2024/03/01 10:17:08;;;;;;;22.60;14.00;;;;;;;12.23;38.80;101314.88;106329;1257;61554;-61
2024/03/01 10:19:50;;;;;;;20.30;13.80;;;;;;;12.29;38.42;101309.52;105142;1260;64231;-56
2024/03/01 10:22:18;;;;;;;20.40;12.70;;;;;;;12.33;37.89;101307.60;105584;1258;60433;-58
2024/03/01 10:25:05;;;;;;;19.90;12.60;;;;;;;12.38;37.87;101305.98;104903;1257;60463;-59
2024/03/01 10:27:39;;;;;;;18.80;12.20;;;;;;;12.45;37.51;101314.81;104969;1262;63716;-60
2024/03/01 10:30:11;;;;;;;21.30;13.30;;;;;;;12.52;37.14;101308.91;105074;1262;69260;-58
2024/03/01 10:33:08;;;;;;;19.80;12.60;;;;;;;12.54;36.98;101298.55;104908;1258;63841;-59
2024/03/01 10:36:13;;;;;;;19.50;12.00;;;;;;;12.53;36.80;101296.29;105071;1257;60874;-58
2024/03/01 10:39:12;;;;;;;23.30;14.30;;;;;;;12.57;36.66;101295.97;105619;1261;60384;-57
2024/03/01 10:42:16;;;;;;;19.80;12.70;;;;;;;12.58;36.60;101302.14;105117;1259;64077;-58
2024/03/01 10:45:17;;;;;;;20.80;13.00;;;;;;;12.63;36.70;101293.61;105202;1263;63886;-57
2024/03/01 10:47:45;;;;;;;21.60;12.70;;;;;;;12.71;36.35;101292.71;106526;1260;63855;-59
2024/03/01 10:50:12;;;;;;;24.90;12.30;;;;;;;12.76;36.24;101296.54;105729;1262;60501;-56
2024/03/01 10:52:59;;;;;;;21.60;14.50;;;;;;;12.81;36.11;101293.33;104922;1257;60546;-59
2024/03/01 10:55:55;;;;;;;20.50;12.50;;;;;;;12.88;36.13;101290.00;104906;1258;75649;-58
2024/03/01 10:58:36;;;;;;;22.40;13.60;;;;;;;12.94;35.76;101283.53;105632;1262;61638;-59
2024/03/01 11:01:22;;;;;;;20.40;13.20;;;;;;;12.99;35.64;101281.91;105810;1263;62562;-57
2024/03/01 11:03:51;;;;;;;15.30;6.00;;;;;;;13.06;35.47;101276.17;105336;1261;60442;-58
2024/03/01 11:06:25;;;;;;;21.30;11.70;;;;;;;13.13;35.41;101272.95;106336;1261;60434;-59
2024/03/01 11:09:02;;;;;;;18.70;11.20;;;;;;;13.19;35.51;101272.52;105544;1262;65099;-60
2024/03/01 11:11:58;;;;;;;18.70;12.30;;;;;;;13.25;35.40;101274.71;105193;1264;61616;-58
2024/03/01 11:14:26;;;;;;;18.30;11.90;;;;;;;13.29;35.12;101272.95;105470;1260;64273;-57
2024/03/01 11:16:54;;;;;;;18.20;11.30;;;;;;;13.32;35.08;101269.08;105615;1262;60565;-58
2024/03/01 11:19:24;;;;;;;18.40;12.90;;;;;;;13.34;35.24;101269.27;105571;1262;60452;-59
2024/03/01 11:22:21;;;;;;;18.80;11.60;;;;;;;13.36;35.21;101269.49;105584;1260;63734;-59
2024/03/01 11:25:04;;;;;;;18.40;13.20;;;;;;;13.37;35.31;101264.60;105632;1262;60457;-57
2024/03/01 11:27:33;;;;;;;21.50;13.50;;;;;;;13.39;35.38;101260.42;106065;1257;63904;-63